sensor_id;sensor_type;location;lat;lon;timestamp;temperature;humidity
61641;HTU21D;62201;49.966;8.342;2023-04-24T00:02:09;11.39;105.92
61641;HTU21D;62201;49.966;8.342;2023-04-24T00:04:37;11.40;106.17
61641;HTU21D;62201;49.966;8.342;2023-04-24T00:07:05;11.38;106.15
61641;HTU21D;62201;49.966;8.342;2023-04-24T00:09:32;11.37;106.25
61641;HTU21D;62201;49.966;8.342;2023-04-24T00:11:57;11.32;106.69
61641;HTU21D;62201;49.966;8.342;2023-04-24T00:14:22;11.31;106.88
61641;HTU21D;62201;49.966;8.342;2023-04-24T00:16:48;11.28;107.10
61641;HTU21D;62201;49.966;8.342;2023-04-24T00:19:13;11.27;107.46
61641;HTU21D;62201;49.966;8.342;2023-04-24T00:21:39;11.26;107.46
61641;HTU21D;62201;49.966;8.342;2023-04-24T00:24:05;11.27;107.46
61641;HTU21D;62201;49.966;8.342;2023-04-24T00:26:30;11.25;107.59
61641;HTU21D;62201;49.966;8.342;2023-04-24T00:28:55;11.24;108.10
61641;HTU21D;62201;49.966;8.342;2023-04-24T00:31:21;11.22;108.17
61641;HTU21D;62201;49.966;8.342;2023-04-24T00:33:46;11.22;108.20
61641;HTU21D;62201;49.966;8.342;2023-04-24T00:36:11;11.20;108.17
61641;HTU21D;62201;49.966;8.342;2023-04-24T00:38:37;11.18;108.43
61641;HTU21D;62201;49.966;8.342;2023-04-24T00:41:02;11.11;108.53
61641;HTU21D;62201;49.966;8.342;2023-04-24T00:43:27;11.04;109.01
61641;HTU21D;62201;49.966;8.342;2023-04-24T00:45:53;10.99;110.04
61641;HTU21D;62201;49.966;8.342;2023-04-24T00:48:20;11.00;110.04
61641;HTU21D;62201;49.966;8.342;2023-04-24T00:50:45;11.04;109.88
61641;HTU21D;62201;49.966;8.342;2023-04-24T00:53:11;11.04;109.36
61641;HTU21D;62201;49.966;8.342;2023-04-24T00:55:36;11.08;109.62
61641;HTU21D;62201;49.966;8.342;2023-04-24T00:58:02;11.10;108.88
61641;HTU21D;62201;49.966;8.342;2023-04-24T01:00:28;11.10;109.29
61641;HTU21D;62201;49.966;8.342;2023-04-24T01:02:55;11.05;110.01
61641;HTU21D;62201;49.966;8.342;2023-04-24T01:05:20;10.98;110.55
61641;HTU21D;62201;49.966;8.342;2023-04-24T01:07:46;10.96;111.44
61641;HTU21D;62201;49.966;8.342;2023-04-24T01:10:14;10.94;111.59
61641;HTU21D;62201;49.966;8.342;2023-04-24T01:12:40;10.88;112.20
61641;HTU21D;62201;49.966;8.342;2023-04-24T01:15:06;10.84;113.13
61641;HTU21D;62201;49.966;8.342;2023-04-24T01:17:32;10.81;113.49
61641;HTU21D;62201;49.966;8.342;2023-04-24T01:19:59;10.83;114.19
61641;HTU21D;62201;49.966;8.342;2023-04-24T01:22:25;10.83;114.09
61641;HTU21D;62201;49.966;8.342;2023-04-24T01:24:51;10.84;113.83
61641;HTU21D;62201;49.966;8.342;2023-04-24T01:27:17;10.86;114.52
61641;HTU21D;62201;49.966;8.342;2023-04-24T01:29:43;10.85;114.31
61641;HTU21D;62201;49.966;8.342;2023-04-24T01:32:08;10.85;114.88
61641;HTU21D;62201;49.966;8.342;2023-04-24T01:34:34;10.83;114.83
61641;HTU21D;62201;49.966;8.342;2023-04-24T01:37:00;10.83;115.07
61641;HTU21D;62201;49.966;8.342;2023-04-24T01:39:26;10.81;115.17
61641;HTU21D;62201;49.966;8.342;2023-04-24T01:41:54;10.78;115.35
61641;HTU21D;62201;49.966;8.342;2023-04-24T01:44:20;10.79;116.07
61641;HTU21D;62201;49.966;8.342;2023-04-24T01:46:46;10.83;115.40
61641;HTU21D;62201;49.966;8.342;2023-04-24T01:49:11;10.85;115.32
61641;HTU21D;62201;49.966;8.342;2023-04-24T01:51:37;10.94;114.27
61641;HTU21D;62201;49.966;8.342;2023-04-24T01:54:02;11.03;112.94
61641;HTU21D;62201;49.966;8.342;2023-04-24T01:56:33;11.14;111.68
61641;HTU21D;62201;49.966;8.342;2023-04-24T01:58:59;11.20;110.15
61641;HTU21D;62201;49.966;8.342;2023-04-24T02:01:25;11.23;110.20
61641;HTU21D;62201;49.966;8.342;2023-04-24T02:03:51;11.26;110.41
61641;HTU21D;62201;49.966;8.342;2023-04-24T02:06:16;11.28;110.46
61641;HTU21D;62201;49.966;8.342;2023-04-24T02:08:42;11.31;109.93
61641;HTU21D;62201;49.966;8.342;2023-04-24T02:11:10;11.32;110.24
61641;HTU21D;62201;49.966;8.342;2023-04-24T02:13:35;11.30;110.89
61641;HTU21D;62201;49.966;8.342;2023-04-24T02:16:01;11.28;111.25
61641;HTU21D;62201;49.966;8.342;2023-04-24T02:18:26;11.26;111.80
61641;HTU21D;62201;49.966;8.342;2023-04-24T02:20:52;11.25;112.23
61641;HTU21D;62201;49.966;8.342;2023-04-24T02:23:17;11.23;112.53
61641;HTU21D;62201;49.966;8.342;2023-04-24T02:25:42;11.22;113.55
61641;HTU21D;62201;49.966;8.342;2023-04-24T02:28:08;11.22;113.00
61641;HTU21D;62201;49.966;8.342;2023-04-24T02:30:33;11.19;113.06
61641;HTU21D;62201;49.966;8.342;2023-04-24T02:32:58;11.19;113.14
61641;HTU21D;62201;49.966;8.342;2023-04-24T02:35:24;11.19;113.20
61641;HTU21D;62201;49.966;8.342;2023-04-24T02:37:49;11.20;113.60
61641;HTU21D;62201;49.966;8.342;2023-04-24T02:40:14;11.23;113.06
61641;HTU21D;62201;49.966;8.342;2023-04-24T02:42:40;11.23;112.80
61641;HTU21D;62201;49.966;8.342;2023-04-24T02:45:06;11.25;112.90
61641;HTU21D;62201;49.966;8.342;2023-04-24T02:47:31;11.25;112.90
61641;HTU21D;62201;49.966;8.342;2023-04-24T02:49:56;11.29;112.72
61641;HTU21D;62201;49.966;8.342;2023-04-24T02:52:22;11.29;112.55
61641;HTU21D;62201;49.966;8.342;2023-04-24T02:54:47;11.31;112.25
61641;HTU21D;62201;49.966;8.342;2023-04-24T02:57:13;11.31;112.41
61641;HTU21D;62201;49.966;8.342;2023-04-24T02:59:38;11.30;112.42
61641;HTU21D;62201;49.966;8.342;2023-04-24T03:02:03;11.31;112.32
61641;HTU21D;62201;49.966;8.342;2023-04-24T03:04:29;11.31;112.22
61641;HTU21D;62201;49.966;8.342;2023-04-24T03:06:55;11.31;112.43
61641;HTU21D;62201;49.966;8.342;2023-04-24T03:09:21;11.29;112.87
61641;HTU21D;62201;49.966;8.342;2023-04-24T03:11:47;11.29;110.81
61641;HTU21D;62201;49.966;8.342;2023-04-24T03:14:13;11.31;111.29
61641;HTU21D;62201;49.966;8.342;2023-04-24T03:16:39;11.32;110.14
61641;HTU21D;62201;49.966;8.342;2023-04-24T03:19:04;11.34;110.04
61641;HTU21D;62201;49.966;8.342;2023-04-24T03:21:32;11.36;108.65
61641;HTU21D;62201;49.966;8.342;2023-04-24T03:23:58;11.37;109.20
61641;HTU21D;62201;49.966;8.342;2023-04-24T03:26:23;11.37;108.56
61641;HTU21D;62201;49.966;8.342;2023-04-24T03:28:49;11.36;108.74
61641;HTU21D;62201;49.966;8.342;2023-04-24T03:31:14;11.38;108.33
61641;HTU21D;62201;49.966;8.342;2023-04-24T03:33:40;11.34;107.12
61641;HTU21D;62201;49.966;8.342;2023-04-24T03:36:06;11.37;104.74
61641;HTU21D;62201;49.966;8.342;2023-04-24T03:38:31;11.33;104.19
61641;HTU21D;62201;49.966;8.342;2023-04-24T03:40:57;11.33;100.58
61641;HTU21D;62201;49.966;8.342;2023-04-24T03:43:22;11.34;96.65
61641;HTU21D;62201;49.966;8.342;2023-04-24T03:45:48;11.33;93.46
61641;HTU21D;62201;49.966;8.342;2023-04-24T03:48:13;11.34;92.07
61641;HTU21D;62201;49.966;8.342;2023-04-24T03:50:38;11.29;90.91
61641;HTU21D;62201;49.966;8.342;2023-04-24T03:53:04;11.30;92.63
61641;HTU21D;62201;49.966;8.342;2023-04-24T03:55:29;11.25;92.44
61641;HTU21D;62201;49.966;8.342;2023-04-24T03:57:54;11.24;91.57
61641;HTU21D;62201;49.966;8.342;2023-04-24T04:00:20;11.17;92.81
61641;HTU21D;62201;49.966;8.342;2023-04-24T04:02:46;11.12;93.46
61641;HTU21D;62201;49.966;8.342;2023-04-24T04:05:11;11.08;91.21
61641;HTU21D;62201;49.966;8.342;2023-04-24T04:07:37;10.99;90.85
61641;HTU21D;62201;49.966;8.342;2023-04-24T04:10:03;10.89;91.40
61641;HTU21D;62201;49.966;8.342;2023-04-24T04:12:28;10.82;90.96
61641;HTU21D;62201;49.966;8.342;2023-04-24T04:14:54;10.73;91.26
61641;HTU21D;62201;49.966;8.342;2023-04-24T04:17:19;10.62;89.75
61641;HTU21D;62201;49.966;8.342;2023-04-24T04:19:44;10.54;90.74
61641;HTU21D;62201;49.966;8.342;2023-04-24T04:22:10;10.44;89.04
61641;HTU21D;62201;49.966;8.342;2023-04-24T04:24:35;10.36;90.02
61641;HTU21D;62201;49.966;8.342;2023-04-24T04:27:06;10.28;89.46
61641;HTU21D;62201;49.966;8.342;2023-04-24T04:29:32;10.23;87.87
61641;HTU21D;62201;49.966;8.342;2023-04-24T04:31:58;10.22;87.43
61641;HTU21D;62201;49.966;8.342;2023-04-24T04:34:23;10.16;86.93
61641;HTU21D;62201;49.966;8.342;2023-04-24T04:36:49;10.13;87.44
61641;HTU21D;62201;49.966;8.342;2023-04-24T04:39:15;10.05;87.79
61641;HTU21D;62201;49.966;8.342;2023-04-24T04:41:41;9.96;87.64
61641;HTU21D;62201;49.966;8.342;2023-04-24T04:44:07;9.92;88.28
61641;HTU21D;62201;49.966;8.342;2023-04-24T04:46:34;9.86;86.86
61641;HTU21D;62201;49.966;8.342;2023-04-24T04:49:01;9.86;85.83
61641;HTU21D;62201;49.966;8.342;2023-04-24T04:51:26;9.85;84.24
61641;HTU21D;62201;49.966;8.342;2023-04-24T04:53:52;9.85;82.85
61641;HTU21D;62201;49.966;8.342;2023-04-24T04:56:17;9.85;80.14
61641;HTU21D;62201;49.966;8.342;2023-04-24T04:58:43;9.89;77.13
61641;HTU21D;62201;49.966;8.342;2023-04-24T05:01:08;9.89;76.20
61641;HTU21D;62201;49.966;8.342;2023-04-24T05:03:33;9.92;73.67
61641;HTU21D;62201;49.966;8.342;2023-04-24T05:05:59;9.91;74.86
61641;HTU21D;62201;49.966;8.342;2023-04-24T05:08:25;9.88;77.20
61641;HTU21D;62201;49.966;8.342;2023-04-24T05:10:50;9.82;74.70
61641;HTU21D;62201;49.966;8.342;2023-04-24T05:13:15;9.80;74.08
61641;HTU21D;62201;49.966;8.342;2023-04-24T05:15:41;9.77;74.71
61641;HTU21D;62201;49.966;8.342;2023-04-24T05:18:06;9.76;74.51
61641;HTU21D;62201;49.966;8.342;2023-04-24T05:20:32;9.76;73.55
61641;HTU21D;62201;49.966;8.342;2023-04-24T05:22:57;9.79;74.05
61641;HTU21D;62201;49.966;8.342;2023-04-24T05:25:22;9.77;74.15
61641;HTU21D;62201;49.966;8.342;2023-04-24T05:27:48;9.76;74.44
61641;HTU21D;62201;49.966;8.342;2023-04-24T05:30:13;9.78;74.54
61641;HTU21D;62201;49.966;8.342;2023-04-24T05:32:39;9.78;74.76
61641;HTU21D;62201;49.966;8.342;2023-04-24T05:35:04;9.83;75.11
61641;HTU21D;62201;49.966;8.342;2023-04-24T05:37:30;9.83;75.65
61641;HTU21D;62201;49.966;8.342;2023-04-24T05:39:56;9.80;77.13
61641;HTU21D;62201;49.966;8.342;2023-04-24T05:42:21;9.80;77.52
61641;HTU21D;62201;49.966;8.342;2023-04-24T05:44:50;9.79;78.65
61641;HTU21D;62201;49.966;8.342;2023-04-24T05:47:15;9.77;79.27
61641;HTU21D;62201;49.966;8.342;2023-04-24T05:49:41;9.79;79.33
61641;HTU21D;62201;49.966;8.342;2023-04-24T05:52:06;9.80;79.82
61641;HTU21D;62201;49.966;8.342;2023-04-24T05:54:34;9.83;80.93
61641;HTU21D;62201;49.966;8.342;2023-04-24T05:56:59;9.81;81.39
61641;HTU21D;62201;49.966;8.342;2023-04-24T05:59:26;9.83;81.62
61641;HTU21D;62201;49.966;8.342;2023-04-24T06:01:51;9.93;82.02
61641;HTU21D;62201;49.966;8.342;2023-04-24T06:04:17;10.06;81.11
61641;HTU21D;62201;49.966;8.342;2023-04-24T06:06:42;10.25;80.89
61641;HTU21D;62201;49.966;8.342;2023-04-24T06:09:07;10.37;80.89
61641;HTU21D;62201;49.966;8.342;2023-04-24T06:11:33;10.51;80.70
61641;HTU21D;62201;49.966;8.342;2023-04-24T06:13:58;10.59;80.37
61641;HTU21D;62201;49.966;8.342;2023-04-24T06:16:24;10.68;80.59
61641;HTU21D;62201;49.966;8.342;2023-04-24T06:18:49;10.73;80.65
61641;HTU21D;62201;49.966;8.342;2023-04-24T06:21:16;10.80;80.87
61641;HTU21D;62201;49.966;8.342;2023-04-24T06:23:41;10.83;80.58
61641;HTU21D;62201;49.966;8.342;2023-04-24T06:26:07;11.02;80.37
61641;HTU21D;62201;49.966;8.342;2023-04-24T06:28:32;11.19;79.84
61641;HTU21D;62201;49.966;8.342;2023-04-24T06:30:57;11.29;78.37
61641;HTU21D;62201;49.966;8.342;2023-04-24T06:33:23;11.31;78.14
61641;HTU21D;62201;49.966;8.342;2023-04-24T06:35:48;11.43;77.37
61641;HTU21D;62201;49.966;8.342;2023-04-24T06:38:14;11.59;77.75
61641;HTU21D;62201;49.966;8.342;2023-04-24T06:40:39;11.63;75.74
61641;HTU21D;62201;49.966;8.342;2023-04-24T06:43:05;11.60;76.11
61641;HTU21D;62201;49.966;8.342;2023-04-24T06:45:31;11.62;76.01
61641;HTU21D;62201;49.966;8.342;2023-04-24T06:47:56;11.58;74.97
61641;HTU21D;62201;49.966;8.342;2023-04-24T06:50:22;11.59;74.06
61641;HTU21D;62201;49.966;8.342;2023-04-24T06:52:47;11.59;72.93
61641;HTU21D;62201;49.966;8.342;2023-04-24T06:55:13;11.64;72.78
61641;HTU21D;62201;49.966;8.342;2023-04-24T06:57:40;11.68;72.08
61641;HTU21D;62201;49.966;8.342;2023-04-24T07:00:06;11.70;73.74
61641;HTU21D;62201;49.966;8.342;2023-04-24T07:02:32;11.71;73.78
61641;HTU21D;62201;49.966;8.342;2023-04-24T07:04:57;11.69;73.32
61641;HTU21D;62201;49.966;8.342;2023-04-24T07:07:22;11.73;73.52
61641;HTU21D;62201;49.966;8.342;2023-04-24T07:09:49;11.77;74.34
61641;HTU21D;62201;49.966;8.342;2023-04-24T07:12:15;11.88;73.14
61641;HTU21D;62201;49.966;8.342;2023-04-24T07:14:42;12.10;72.22
61641;HTU21D;62201;49.966;8.342;2023-04-24T07:17:07;11.93;72.39
61641;HTU21D;62201;49.966;8.342;2023-04-24T07:19:33;11.84;73.10
61641;HTU21D;62201;49.966;8.342;2023-04-24T07:22:00;11.78;72.80
61641;HTU21D;62201;49.966;8.342;2023-04-24T07:24:26;11.83;72.23
61641;HTU21D;62201;49.966;8.342;2023-04-24T07:26:52;11.85;72.00
61641;HTU21D;62201;49.966;8.342;2023-04-24T07:29:18;11.84;70.68
61641;HTU21D;62201;49.966;8.342;2023-04-24T07:31:44;11.82;71.12
61641;HTU21D;62201;49.966;8.342;2023-04-24T07:34:09;11.82;69.92
61641;HTU21D;62201;49.966;8.342;2023-04-24T07:36:35;11.67;69.91
61641;HTU21D;62201;49.966;8.342;2023-04-24T07:39:00;11.73;69.49
61641;HTU21D;62201;49.966;8.342;2023-04-24T07:41:26;11.88;68.17
61641;HTU21D;62201;49.966;8.342;2023-04-24T07:43:53;12.01;68.52
61641;HTU21D;62201;49.966;8.342;2023-04-24T07:46:19;12.22;68.30
61641;HTU21D;62201;49.966;8.342;2023-04-24T07:48:45;12.38;68.07
61641;HTU21D;62201;49.966;8.342;2023-04-24T07:51:11;12.50;66.66
61641;HTU21D;62201;49.966;8.342;2023-04-24T07:53:38;12.37;64.95
61641;HTU21D;62201;49.966;8.342;2023-04-24T07:56:05;12.49;65.82
61641;HTU21D;62201;49.966;8.342;2023-04-24T07:58:31;12.60;65.88
61641;HTU21D;62201;49.966;8.342;2023-04-24T08:00:56;12.71;65.13
61641;HTU21D;62201;49.966;8.342;2023-04-24T08:03:21;12.84;65.53
61641;HTU21D;62201;49.966;8.342;2023-04-24T08:05:47;12.77;64.07
61641;HTU21D;62201;49.966;8.342;2023-04-24T08:08:13;12.95;64.15
61641;HTU21D;62201;49.966;8.342;2023-04-24T08:10:38;13.02;63.23
61641;HTU21D;62201;49.966;8.342;2023-04-24T08:13:03;13.17;64.14
61641;HTU21D;62201;49.966;8.342;2023-04-24T08:15:29;13.35;62.65
61641;HTU21D;62201;49.966;8.342;2023-04-24T08:17:54;13.41;62.05
61641;HTU21D;62201;49.966;8.342;2023-04-24T08:20:20;13.23;62.45
61641;HTU21D;62201;49.966;8.342;2023-04-24T08:22:45;13.26;62.87
61641;HTU21D;62201;49.966;8.342;2023-04-24T08:25:12;13.45;62.52
61641;HTU21D;62201;49.966;8.342;2023-04-24T08:27:38;13.47;61.56
61641;HTU21D;62201;49.966;8.342;2023-04-24T08:30:05;13.52;62.22
61641;HTU21D;62201;49.966;8.342;2023-04-24T08:32:30;13.32;61.01
61641;HTU21D;62201;49.966;8.342;2023-04-24T08:34:59;13.09;62.33
61641;HTU21D;62201;49.966;8.342;2023-04-24T08:37:26;12.81;63.52
61641;HTU21D;62201;49.966;8.342;2023-04-24T08:39:52;12.69;64.89
61641;HTU21D;62201;49.966;8.342;2023-04-24T08:42:19;12.45;65.38
61641;HTU21D;62201;49.966;8.342;2023-04-24T08:44:45;12.29;66.96
61641;HTU21D;62201;49.966;8.342;2023-04-24T08:47:11;12.16;66.77
61641;HTU21D;62201;49.966;8.342;2023-04-24T08:49:38;12.11;65.54
61641;HTU21D;62201;49.966;8.342;2023-04-24T08:52:04;12.22;65.12
61641;HTU21D;62201;49.966;8.342;2023-04-24T08:54:31;12.46;65.76
61641;HTU21D;62201;49.966;8.342;2023-04-24T08:57:00;12.46;65.95
61641;HTU21D;62201;49.966;8.342;2023-04-24T08:59:31;12.60;66.12
61641;HTU21D;62201;49.966;8.342;2023-04-24T09:01:57;12.61;65.85
61641;HTU21D;62201;49.966;8.342;2023-04-24T09:04:23;12.60;65.24
61641;HTU21D;62201;49.966;8.342;2023-04-24T09:06:57;12.66;63.79
61641;HTU21D;62201;49.966;8.342;2023-04-24T09:09:24;12.94;63.02
61641;HTU21D;62201;49.966;8.342;2023-04-24T09:11:50;13.11;63.35
61641;HTU21D;62201;49.966;8.342;2023-04-24T09:14:17;12.97;63.60
61641;HTU21D;62201;49.966;8.342;2023-04-24T09:16:43;12.89;63.05
61641;HTU21D;62201;49.966;8.342;2023-04-24T09:19:08;12.74;64.45
61641;HTU21D;62201;49.966;8.342;2023-04-24T09:21:34;12.67;64.44
61641;HTU21D;62201;49.966;8.342;2023-04-24T09:24:02;12.71;63.60
61641;HTU21D;62201;49.966;8.342;2023-04-24T09:26:34;12.76;63.73
61641;HTU21D;62201;49.966;8.342;2023-04-24T09:29:00;12.99;64.08
61641;HTU21D;62201;49.966;8.342;2023-04-24T09:31:27;12.87;64.70
61641;HTU21D;62201;49.966;8.342;2023-04-24T09:34:00;12.81;65.59
61641;HTU21D;62201;49.966;8.342;2023-04-24T09:36:32;12.87;64.17
61641;HTU21D;62201;49.966;8.342;2023-04-24T09:39:01;13.02;63.66
61641;HTU21D;62201;49.966;8.342;2023-04-24T09:41:28;13.23;63.15
61641;HTU21D;62201;49.966;8.342;2023-04-24T09:43:56;13.53;63.55
61641;HTU21D;62201;49.966;8.342;2023-04-24T09:46:29;13.47;62.64
61641;HTU21D;62201;49.966;8.342;2023-04-24T09:48:55;13.56;63.41
61641;HTU21D;62201;49.966;8.342;2023-04-24T09:51:33;13.44;64.34
61641;HTU21D;62201;49.966;8.342;2023-04-24T09:54:00;13.18;64.37
61641;HTU21D;62201;49.966;8.342;2023-04-24T09:56:26;12.97;65.40
61641;HTU21D;62201;49.966;8.342;2023-04-24T09:58:51;12.69;65.59
61641;HTU21D;62201;49.966;8.342;2023-04-24T10:01:30;12.58;65.73
61641;HTU21D;62201;49.966;8.342;2023-04-24T10:03:55;12.47;67.04
61641;HTU21D;62201;49.966;8.342;2023-04-24T10:06:21;12.47;67.32
61641;HTU21D;62201;49.966;8.342;2023-04-24T10:08:48;12.35;67.98
61641;HTU21D;62201;49.966;8.342;2023-04-24T10:11:13;12.21;67.93
61641;HTU21D;62201;49.966;8.342;2023-04-24T10:13:39;12.32;68.87
61641;HTU21D;62201;49.966;8.342;2023-04-24T10:16:06;12.49;67.90
61641;HTU21D;62201;49.966;8.342;2023-04-24T10:18:33;12.93;67.62
61641;HTU21D;62201;49.966;8.342;2023-04-24T10:21:00;13.20;65.94
61641;HTU21D;62201;49.966;8.342;2023-04-24T10:23:27;13.46;65.46
61641;HTU21D;62201;49.966;8.342;2023-04-24T10:25:53;13.45;67.92
61641;HTU21D;62201;49.966;8.342;2023-04-24T10:28:20;13.19;68.02
61641;HTU21D;62201;49.966;8.342;2023-04-24T10:30:46;12.82;69.55
61641;HTU21D;62201;49.966;8.342;2023-04-24T10:33:13;12.50;70.07
61641;HTU21D;62201;49.966;8.342;2023-04-24T10:35:45;12.43;71.47
61641;HTU21D;62201;49.966;8.342;2023-04-24T10:38:14;12.61;72.02
61641;HTU21D;62201;49.966;8.342;2023-04-24T10:40:42;12.85;71.27
61641;HTU21D;62201;49.966;8.342;2023-04-24T10:43:08;12.87;71.29
61641;HTU21D;62201;49.966;8.342;2023-04-24T10:45:38;12.73;73.40
61641;HTU21D;62201;49.966;8.342;2023-04-24T10:48:09;12.37;79.33
61641;HTU21D;62201;49.966;8.342;2023-04-24T10:53:12;11.68;81.44
61641;HTU21D;62201;49.966;8.342;2023-04-24T10:55:46;11.53;80.95
61641;HTU21D;62201;49.966;8.342;2023-04-24T10:58:12;11.58;81.32
61641;HTU21D;62201;49.966;8.342;2023-04-24T11:00:39;11.77;80.75
61641;HTU21D;62201;49.966;8.342;2023-04-24T11:03:25;12.20;77.53
61641;HTU21D;62201;49.966;8.342;2023-04-24T11:06:02;12.18;76.47
61641;HTU21D;62201;49.966;8.342;2023-04-24T11:08:43;12.23;77.32
61641;HTU21D;62201;49.966;8.342;2023-04-24T11:11:13;12.06;74.65
61641;HTU21D;62201;49.966;8.342;2023-04-24T11:14:01;11.81;78.46
61641;HTU21D;62201;49.966;8.342;2023-04-24T11:16:31;11.73;79.63
61641;HTU21D;62201;49.966;8.342;2023-04-24T11:21:47;11.47;76.73
61641;HTU21D;62201;49.966;8.342;2023-04-24T11:29:51;11.89;82.10
61641;HTU21D;62201;49.966;8.342;2023-04-24T11:32:41;12.21;82.05
61641;HTU21D;62201;49.966;8.342;2023-04-24T11:35:27;12.17;81.13
61641;HTU21D;62201;49.966;8.342;2023-04-24T11:37:55;12.42;80.53
61641;HTU21D;62201;49.966;8.342;2023-04-24T11:40:21;12.49;79.35
61641;HTU21D;62201;49.966;8.342;2023-04-24T11:42:51;12.89;77.04
61641;HTU21D;62201;49.966;8.342;2023-04-24T11:45:28;13.18;76.90
61641;HTU21D;62201;49.966;8.342;2023-04-24T11:47:53;13.44;72.09
61641;HTU21D;62201;49.966;8.342;2023-04-24T11:50:21;13.91;69.82
61641;HTU21D;62201;49.966;8.342;2023-04-24T11:52:49;13.84;68.44
61641;HTU21D;62201;49.966;8.342;2023-04-24T11:57:42;14.06;64.55
61641;HTU21D;62201;49.966;8.342;2023-04-24T12:00:15;14.29;64.85
61641;HTU21D;62201;49.966;8.342;2023-04-24T12:02:41;15.22;63.85
61641;HTU21D;62201;49.966;8.342;2023-04-24T12:05:06;14.91;61.23
61641;HTU21D;62201;49.966;8.342;2023-04-24T12:07:40;14.83;61.57
61641;HTU21D;62201;49.966;8.342;2023-04-24T12:10:08;14.44;64.24
61641;HTU21D;62201;49.966;8.342;2023-04-24T12:12:34;13.71;67.52
61641;HTU21D;62201;49.966;8.342;2023-04-24T12:15:01;13.18;68.05
61641;HTU21D;62201;49.966;8.342;2023-04-24T12:17:31;12.82;70.11
61641;HTU21D;62201;49.966;8.342;2023-04-24T12:20:04;12.74;71.35
61641;HTU21D;62201;49.966;8.342;2023-04-24T12:22:52;12.73;71.32
61641;HTU21D;62201;49.966;8.342;2023-04-24T12:25:25;12.65;71.40
61641;HTU21D;62201;49.966;8.342;2023-04-24T12:30:43;12.71;70.95
61641;HTU21D;62201;49.966;8.342;2023-04-24T12:33:20;12.71;69.90
61641;HTU21D;62201;49.966;8.342;2023-04-24T12:35:50;12.94;69.75
61641;HTU21D;62201;49.966;8.342;2023-04-24T12:38:16;13.35;67.78
61641;HTU21D;62201;49.966;8.342;2023-04-24T12:40:46;13.55;64.94
61641;HTU21D;62201;49.966;8.342;2023-04-24T12:43:19;13.91;63.11
61641;HTU21D;62201;49.966;8.342;2023-04-24T12:45:45;14.38;62.90
61641;HTU21D;62201;49.966;8.342;2023-04-24T12:48:11;14.68;57.29
61641;HTU21D;62201;49.966;8.342;2023-04-24T12:50:36;14.67;54.84
61641;HTU21D;62201;49.966;8.342;2023-04-24T12:53:02;14.74;54.56
61641;HTU21D;62201;49.966;8.342;2023-04-24T12:55:28;14.73;52.83
61641;HTU21D;62201;49.966;8.342;2023-04-24T12:57:53;14.82;53.39
61641;HTU21D;62201;49.966;8.342;2023-04-24T13:00:20;14.85;52.98
61641;HTU21D;62201;49.966;8.342;2023-04-24T13:02:45;14.81;53.10
61641;HTU21D;62201;49.966;8.342;2023-04-24T13:05:11;15.08;52.90
61641;HTU21D;62201;49.966;8.342;2023-04-24T13:07:38;15.73;51.27
61641;HTU21D;62201;49.966;8.342;2023-04-24T13:10:05;15.65;50.66
61641;HTU21D;62201;49.966;8.342;2023-04-24T13:12:31;15.36;51.50
61641;HTU21D;62201;49.966;8.342;2023-04-24T13:14:57;15.28;51.72
61641;HTU21D;62201;49.966;8.342;2023-04-24T13:17:23;14.95;51.87
61641;HTU21D;62201;49.966;8.342;2023-04-24T13:19:50;14.52;52.93
61641;HTU21D;62201;49.966;8.342;2023-04-24T13:22:16;14.29;55.36
61641;HTU21D;62201;49.966;8.342;2023-04-24T13:24:44;14.13;56.99
61641;HTU21D;62201;49.966;8.342;2023-04-24T13:27:10;13.81;58.82
61641;HTU21D;62201;49.966;8.342;2023-04-24T13:29:36;13.56;59.54
61641;HTU21D;62201;49.966;8.342;2023-04-24T13:32:02;13.51;59.87
61641;HTU21D;62201;49.966;8.342;2023-04-24T13:34:27;13.15;63.60
61641;HTU21D;62201;49.966;8.342;2023-04-24T13:36:54;13.26;61.96
61641;HTU21D;62201;49.966;8.342;2023-04-24T13:39:20;13.55;60.08
61641;HTU21D;62201;49.966;8.342;2023-04-24T13:41:46;13.94;58.98
61641;HTU21D;62201;49.966;8.342;2023-04-24T13:44:14;14.18;57.63
61641;HTU21D;62201;49.966;8.342;2023-04-24T13:46:40;14.33;56.72
61641;HTU21D;62201;49.966;8.342;2023-04-24T13:49:05;14.74;56.31
61641;HTU21D;62201;49.966;8.342;2023-04-24T13:51:32;14.50;54.94
61641;HTU21D;62201;49.966;8.342;2023-04-24T13:53:58;14.33;56.04
61641;HTU21D;62201;49.966;8.342;2023-04-24T13:56:24;14.42;55.82
61641;HTU21D;62201;49.966;8.342;2023-04-24T13:58:50;14.41;56.05
61641;HTU21D;62201;49.966;8.342;2023-04-24T14:01:16;14.32;53.77
61641;HTU21D;62201;49.966;8.342;2023-04-24T14:03:42;14.24;52.53
61641;HTU21D;62201;49.966;8.342;2023-04-24T14:06:08;14.41;52.40
61641;HTU21D;62201;49.966;8.342;2023-04-24T14:08:34;14.27;52.11
61641;HTU21D;62201;49.966;8.342;2023-04-24T14:10:59;14.29;51.09
61641;HTU21D;62201;49.966;8.342;2023-04-24T14:13:24;14.38;50.87
61641;HTU21D;62201;49.966;8.342;2023-04-24T14:15:51;14.24;50.08
61641;HTU21D;62201;49.966;8.342;2023-04-24T14:18:17;14.38;51.48
61641;HTU21D;62201;49.966;8.342;2023-04-24T14:20:43;14.58;52.34
61641;HTU21D;62201;49.966;8.342;2023-04-24T14:23:08;14.98;51.14
61641;HTU21D;62201;49.966;8.342;2023-04-24T14:25:34;15.24;51.25
61641;HTU21D;62201;49.966;8.342;2023-04-24T14:27:59;15.36;51.55
61641;HTU21D;62201;49.966;8.342;2023-04-24T14:30:24;15.19;50.55
61641;HTU21D;62201;49.966;8.342;2023-04-24T14:32:50;14.94;52.11
61641;HTU21D;62201;49.966;8.342;2023-04-24T14:35:15;14.87;51.69
61641;HTU21D;62201;49.966;8.342;2023-04-24T14:37:41;14.85;50.54
61641;HTU21D;62201;49.966;8.342;2023-04-24T14:40:07;14.73;50.02
61641;HTU21D;62201;49.966;8.342;2023-04-24T14:42:33;14.60;52.57
61641;HTU21D;62201;49.966;8.342;2023-04-24T14:44:59;14.57;54.75
61641;HTU21D;62201;49.966;8.342;2023-04-24T14:47:24;14.43;55.20
61641;HTU21D;62201;49.966;8.342;2023-04-24T14:49:50;14.28;55.97
61641;HTU21D;62201;49.966;8.342;2023-04-24T14:52:16;14.34;55.84
61641;HTU21D;62201;49.966;8.342;2023-04-24T14:54:42;14.30;55.53
61641;HTU21D;62201;49.966;8.342;2023-04-24T14:57:07;14.29;56.10
61641;HTU21D;62201;49.966;8.342;2023-04-24T14:59:33;14.66;54.71
61641;HTU21D;62201;49.966;8.342;2023-04-24T15:01:58;14.79;54.65
61641;HTU21D;62201;49.966;8.342;2023-04-24T15:04:24;14.97;53.71
61641;HTU21D;62201;49.966;8.342;2023-04-24T15:06:53;15.69;52.46
61641;HTU21D;62201;49.966;8.342;2023-04-24T15:09:22;15.82;48.95
61641;HTU21D;62201;49.966;8.342;2023-04-24T15:11:49;15.41;50.33
61641;HTU21D;62201;49.966;8.342;2023-04-24T15:14:15;15.55;50.64
61641;HTU21D;62201;49.966;8.342;2023-04-24T15:16:41;16.12;49.00
61641;HTU21D;62201;49.966;8.342;2023-04-24T15:19:06;16.19;47.77
61641;HTU21D;62201;49.966;8.342;2023-04-24T15:21:32;15.75;48.37
61641;HTU21D;62201;49.966;8.342;2023-04-24T15:23:57;15.99;47.50
61641;HTU21D;62201;49.966;8.342;2023-04-24T15:26:23;15.80;47.95
61641;HTU21D;62201;49.966;8.342;2023-04-24T15:28:49;15.81;47.89